createdAt,value
2018-09-18T11:54:31.708Z,31.00
2018-09-18T11:56:59.331Z,30.90
2018-09-18T11:59:27.015Z,30.70
2018-09-18T12:01:54.664Z,30.70
2018-09-18T12:04:22.339Z,30.80
2018-09-18T12:06:49.999Z,31.00
2018-09-18T12:09:17.667Z,31.10
2018-09-18T12:11:45.295Z,31.00
2018-09-18T12:14:12.903Z,31.00
2018-09-18T12:16:40.554Z,30.90
2018-09-18T12:19:08.228Z,30.80
2018-09-18T12:21:35.939Z,30.60
2018-09-18T12:24:03.554Z,30.90
2018-09-18T12:26:31.127Z,31.00
2018-09-18T12:28:58.743Z,31.10
2018-09-18T12:31:26.374Z,31.20
2018-09-18T12:33:54.863Z,31.40
2018-09-18T12:36:22.530Z,31.20
2018-09-18T12:38:50.114Z,31.30
2018-09-18T12:41:17.743Z,31.30
2018-09-18T12:43:45.654Z,31.10
2018-09-18T12:46:13.358Z,31.10
2018-09-18T12:48:41.647Z,31.30
2018-09-18T12:51:09.277Z,31.20
2018-09-18T12:53:36.930Z,30.70
2018-09-18T12:56:04.715Z,30.60
2018-09-18T12:58:32.350Z,30.80
2018-09-18T13:00:59.896Z,31.00
2018-09-18T13:03:27.580Z,31.00
2018-09-18T13:05:55.186Z,31.20
2018-09-18T13:08:22.775Z,31.40
2018-09-18T13:10:50.639Z,31.40
2018-09-18T13:13:18.515Z,31.20
2018-09-18T13:15:46.199Z,31.20
2018-09-18T13:18:13.822Z,31.50
2018-09-18T13:20:41.507Z,31.70
2018-09-18T13:23:09.187Z,31.70
2018-09-18T13:25:36.812Z,31.50
2018-09-18T13:28:04.471Z,31.40
2018-09-18T13:30:32.235Z,31.50
2018-09-18T13:33:00.183Z,31.40
2018-09-18T13:35:27.883Z,31.30
2018-09-18T13:37:55.571Z,31.40
2018-09-18T13:40:23.250Z,31.50
2018-09-18T13:42:50.891Z,31.40
2018-09-18T13:45:18.928Z,31.20
2018-09-18T13:47:46.510Z,31.30
2018-09-18T13:50:14.202Z,31.40
2018-09-18T13:52:41.994Z,31.40
2018-09-18T13:55:09.653Z,31.30
2018-09-18T13:57:37.454Z,31.40
2018-09-18T14:00:05.262Z,31.50
2018-09-18T14:02:32.942Z,31.70
2018-09-18T14:05:00.936Z,31.60
2018-09-18T14:07:28.574Z,31.60
2018-09-18T14:09:56.382Z,31.40
2018-09-18T14:12:24.061Z,31.20
2018-09-18T14:14:51.995Z,31.20
2018-09-18T14:17:19.651Z,31.30
2018-09-18T14:19:47.310Z,31.30
2018-09-18T14:22:14.998Z,31.20
2018-09-18T14:24:42.662Z,31.30
2018-09-18T14:27:10.347Z,31.20
2018-09-18T14:29:37.972Z,31.30
2018-09-18T14:32:05.627Z,31.20
2018-09-18T14:34:33.399Z,31.10
2018-09-18T14:37:01.076Z,31.10
2018-09-18T14:39:28.709Z,30.90
2018-09-18T14:41:56.519Z,30.80
2018-09-18T14:44:24.135Z,30.60
2018-09-18T14:46:51.902Z,30.60
2018-09-18T14:49:19.478Z,30.60
2018-09-18T14:51:47.104Z,30.70
2018-09-18T14:54:14.788Z,30.80
2018-09-18T14:56:42.574Z,30.70
2018-09-18T14:59:10.238Z,30.70
2018-09-18T15:01:37.926Z,30.50
2018-09-18T15:04:05.695Z,30.40
2018-09-18T15:06:34.051Z,30.40
2018-09-18T15:09:01.689Z,30.40
2018-09-18T15:11:30.544Z,30.30
2018-09-18T15:13:58.193Z,30.30
2018-09-18T15:16:25.955Z,30.30
2018-09-18T15:18:53.664Z,30.30
2018-09-18T15:21:21.346Z,30.20
2018-09-18T15:23:49.022Z,30.10
2018-09-18T15:26:16.722Z,30.10
2018-09-18T15:28:44.396Z,30.00
2018-09-18T15:31:12.026Z,30.00
2018-09-18T15:33:39.753Z,30.00
2018-09-18T15:36:07.353Z,30.00
2018-09-18T15:38:35.202Z,29.90
2018-09-18T15:41:02.960Z,29.90
2018-09-18T15:43:30.764Z,29.90
2018-09-18T15:45:58.630Z,30.10
2018-09-18T15:48:26.510Z,30.00
2018-09-18T15:50:54.245Z,30.00
2018-09-18T15:53:22.515Z,30.00
2018-09-18T15:55:50.371Z,30.00
2018-09-18T15:58:18.103Z,30.10
2018-09-18T16:00:45.861Z,30.20
2018-09-18T16:03:14.429Z,30.20
2018-09-18T16:05:42.170Z,30.40
2018-09-18T16:08:10.173Z,30.30
2018-09-18T16:10:37.811Z,30.30
2018-09-18T16:13:05.647Z,30.20
2018-09-18T16:18:00.872Z,30.30
2018-09-18T16:20:28.498Z,30.30
2018-09-18T16:22:56.312Z,30.30
2018-09-18T16:25:23.979Z,30.10
2018-09-18T16:27:51.698Z,30.10
2018-09-18T16:30:19.347Z,29.90
2018-09-18T16:32:47.059Z,30.00
2018-09-18T16:35:14.716Z,30.00
2018-09-18T16:37:42.386Z,30.00
2018-09-18T16:40:10.165Z,29.90
2018-09-18T16:42:37.854Z,29.80
2018-09-18T16:45:05.546Z,29.80
2018-09-18T16:47:33.279Z,29.80
2018-09-18T16:50:01.012Z,29.70
2018-09-18T16:52:28.761Z,29.70
2018-09-18T16:54:56.471Z,29.60
2018-09-18T16:57:24.929Z,29.60
2018-09-18T16:59:53.515Z,29.50
2018-09-18T17:02:21.493Z,29.50
2018-09-18T17:04:49.487Z,29.40
2018-09-18T17:07:17.360Z,29.40
2018-09-18T17:09:45.281Z,29.30
2018-09-18T17:12:13.195Z,29.20
2018-09-18T17:14:40.865Z,29.20
2018-09-18T17:17:08.570Z,29.20
2018-09-18T17:19:36.338Z,29.00
2018-09-18T17:22:03.988Z,29.00
2018-09-18T17:24:31.740Z,29.00
2018-09-18T17:26:59.796Z,28.90
2018-09-18T17:29:27.435Z,28.70
2018-09-18T17:31:55.091Z,28.60
2018-09-18T17:34:25.819Z,28.50
2018-09-18T17:36:53.366Z,28.50
2018-09-18T17:39:21.153Z,28.40
2018-09-18T17:41:48.971Z,28.30
2018-09-18T17:44:16.603Z,28.20
2018-09-18T17:46:45.164Z,28.20
2018-09-18T17:49:13.154Z,28.10
2018-09-18T17:51:42.949Z,28.00
2018-09-18T17:54:10.723Z,27.90
2018-09-18T17:56:38.428Z,27.80
2018-09-18T17:59:06.041Z,27.70
2018-09-18T18:01:33.778Z,27.60
2018-09-18T18:04:01.419Z,27.60
2018-09-18T18:06:29.120Z,27.50
2018-09-18T18:08:57.766Z,27.50
2018-09-18T18:11:25.436Z,27.50
2018-09-18T18:13:53.151Z,27.40
2018-09-18T18:16:22.559Z,27.40
2018-09-18T18:18:50.199Z,27.40
2018-09-18T18:21:18.019Z,27.40
2018-09-18T18:23:45.723Z,27.40
2018-09-18T18:26:13.364Z,27.40
2018-09-18T18:28:41.121Z,27.30
2018-09-18T18:31:08.825Z,27.20
2018-09-18T18:33:36.610Z,27.20
2018-09-18T18:36:04.434Z,27.10
2018-09-18T18:38:32.096Z,27.00
2018-09-18T18:40:59.718Z,27.00
2018-09-18T18:43:27.323Z,26.90
2018-09-18T18:45:55.142Z,26.90
2018-09-18T18:48:22.931Z,26.80
2018-09-18T18:50:50.411Z,26.80
2018-09-18T18:53:18.062Z,26.80
2018-09-18T18:55:45.728Z,26.70
2018-09-18T18:58:13.315Z,26.70
2018-09-18T19:00:40.977Z,26.60
2018-09-18T19:03:08.689Z,26.60
2018-09-18T19:05:36.495Z,26.70
2018-09-18T19:08:04.695Z,26.70
2018-09-18T19:10:32.425Z,26.80
2018-09-18T19:13:00.117Z,26.80
2018-09-18T19:15:27.990Z,26.70
2018-09-18T19:17:55.808Z,26.50
2018-09-18T19:20:23.505Z,26.40
2018-09-18T19:22:51.169Z,26.40
2018-09-18T19:25:18.871Z,26.40
2018-09-18T19:27:46.575Z,26.30
2018-09-18T19:30:14.359Z,26.30
2018-09-18T19:32:44.450Z,26.30
2018-09-18T19:35:12.177Z,26.30
2018-09-18T19:37:39.813Z,26.20
2018-09-18T19:40:07.511Z,26.30
2018-09-18T19:42:35.259Z,26.30
2018-09-18T19:45:03.008Z,26.20
2018-09-18T19:47:30.844Z,26.20
2018-09-18T19:49:58.577Z,26.20
2018-09-18T19:52:26.917Z,26.20
2018-09-18T19:54:54.505Z,26.10
2018-09-18T19:57:23.167Z,26.10
2018-09-18T19:59:51.297Z,26.00
2018-09-18T20:02:18.991Z,26.00
2018-09-18T20:04:46.676Z,26.00
2018-09-18T20:07:14.376Z,25.80
2018-09-18T20:09:42.305Z,25.80
2018-09-18T20:12:10.489Z,25.70
2018-09-18T20:14:39.189Z,25.60
2018-09-18T20:17:06.883Z,25.60
2018-09-18T20:19:34.614Z,25.50
2018-09-18T20:22:02.350Z,25.50
2018-09-18T20:24:30.085Z,25.40
2018-09-18T20:26:57.775Z,25.30
2018-09-18T20:29:25.761Z,25.20
2018-09-18T20:31:53.582Z,25.10
2018-09-18T20:34:22.343Z,25.00
2018-09-18T20:36:49.939Z,25.00
2018-09-18T20:39:18.447Z,24.90
2018-09-18T20:41:46.204Z,24.80
2018-09-18T20:44:13.928Z,24.80
2018-09-18T20:46:50.713Z,24.80
2018-09-18T20:49:18.351Z,24.80
2018-09-18T20:51:46.046Z,24.80
2018-09-18T20:56:47.318Z,24.80
2018-09-18T20:59:15.207Z,24.90
2018-09-18T21:01:42.801Z,25.00
2018-09-18T21:04:14.727Z,24.90
2018-09-18T21:06:46.189Z,24.90
2018-09-18T21:09:14.289Z,24.80
2018-09-18T21:11:41.947Z,24.90
2018-09-18T21:14:09.995Z,24.90
2018-09-18T21:16:37.696Z,24.90
2018-09-18T21:19:05.837Z,24.90
2018-09-18T21:21:33.486Z,24.80
2018-09-18T21:24:01.119Z,24.80
2018-09-18T21:26:28.759Z,24.80
2018-09-18T21:28:56.417Z,24.80
2018-09-18T21:31:24.315Z,24.70
2018-09-18T21:33:51.998Z,24.70
2018-09-18T21:36:19.674Z,24.70
2018-09-18T21:38:47.350Z,24.70
2018-09-18T21:41:20.003Z,24.50
2018-09-18T21:43:47.873Z,24.70
2018-09-18T21:46:15.550Z,24.50
2018-09-18T21:48:43.206Z,24.40
2018-09-18T21:51:11.894Z,24.40
2018-09-18T21:53:39.517Z,24.30
2018-09-18T21:56:07.302Z,24.20
2018-09-18T21:58:34.945Z,24.10
2018-09-18T22:01:05.778Z,24.00
2018-09-18T22:03:33.766Z,24.00
2018-09-18T22:06:02.455Z,23.90
2018-09-18T22:08:31.498Z,23.80
2018-09-18T22:10:59.144Z,23.80
2018-09-18T22:13:26.851Z,23.70
2018-09-18T22:15:54.574Z,23.50
2018-09-18T22:18:22.376Z,23.50
2018-09-18T22:20:50.077Z,23.50
2018-09-18T22:23:17.744Z,23.40
2018-09-18T22:25:45.366Z,23.40
2018-09-18T22:28:13.092Z,23.40
2018-09-18T22:30:40.690Z,23.30
2018-09-18T22:33:08.398Z,23.20
2018-09-18T22:35:35.958Z,23.20
2018-09-18T22:38:03.677Z,23.10
2018-09-18T22:40:31.263Z,23.10
2018-09-18T22:42:59.249Z,23.00
2018-09-18T22:45:27.509Z,23.00
2018-09-18T22:47:55.203Z,23.00
2018-09-18T22:50:22.924Z,23.00
2018-09-18T22:52:50.910Z,23.00
2018-09-18T22:55:19.087Z,23.00
2018-09-18T22:57:47.190Z,23.10
2018-09-18T23:00:14.892Z,22.90
2018-09-18T23:02:42.530Z,22.90
2018-09-18T23:05:10.117Z,22.90
2018-09-18T23:07:37.759Z,22.90
2018-09-18T23:10:06.316Z,22.90
2018-09-18T23:12:33.979Z,22.90
2018-09-18T23:15:01.876Z,22.90
2018-09-18T23:17:29.523Z,22.90
2018-09-18T23:19:57.420Z,22.90
2018-09-18T23:22:25.126Z,22.90
2018-09-18T23:24:53.452Z,22.90
2018-09-18T23:27:21.270Z,22.80
2018-09-18T23:29:49.201Z,22.80
2018-09-18T23:32:16.942Z,22.70
2018-09-18T23:34:45.102Z,22.70
2018-09-18T23:37:12.767Z,22.70
2018-09-18T23:39:40.626Z,22.70
2018-09-18T23:42:08.346Z,22.60
2018-09-18T23:44:36.058Z,22.50
2018-09-18T23:47:03.810Z,22.60
2018-09-18T23:49:31.499Z,22.50
2018-09-18T23:51:59.122Z,22.50
2018-09-18T23:54:26.964Z,22.50
2018-09-18T23:56:55.720Z,22.50
2018-09-18T23:59:23.558Z,22.40
